sensor_id;sensor_type;location;lat;lon;timestamp;pressure;altitude;pressure_sealevel;temperature;humidity
63654;BME280;49809;47.418;19.080;2023-03-03T00:00:52;100743.50;;;0.68;100.00
63654;BME280;49809;47.418;19.080;2023-03-03T00:08:39;100756.22;;;0.63;100.00
63654;BME280;49809;47.418;19.080;2023-03-03T00:15:41;100745.28;;;0.53;100.00
63654;BME280;49809;47.418;19.080;2023-03-03T00:19:18;100749.66;;;0.53;100.00
63654;BME280;49809;47.418;19.080;2023-03-03T00:23:34;100746.72;;;0.56;100.00
63654;BME280;49809;47.418;19.080;2023-03-03T00:27:14;100743.25;;;0.40;100.00
63654;BME280;49809;47.418;19.080;2023-03-03T00:39:21;100741.31;;;0.34;100.00
63654;BME280;49809;47.418;19.080;2023-03-03T00:54:58;100740.12;;;0.22;100.00
63654;BME280;49809;47.418;19.080;2023-03-03T00:58:41;100732.66;;;0.19;100.00
63654;BME280;49809;47.418;19.080;2023-03-03T01:02:07;100723.84;;;0.20;100.00
63654;BME280;49809;47.418;19.080;2023-03-03T01:09:45;100721.81;;;0.30;100.00
63654;BME280;49809;47.418;19.080;2023-03-03T01:17:41;100713.31;;;0.36;100.00
63654;BME280;49809;47.418;19.080;2023-03-03T01:25:16;100702.66;;;0.46;100.00
63654;BME280;49809;47.418;19.080;2023-03-03T01:29:05;100709.59;;;0.54;100.00
63654;BME280;49809;47.418;19.080;2023-03-03T01:32:41;100706.94;;;0.62;100.00
63654;BME280;49809;47.418;19.080;2023-03-03T01:40:31;100698.94;;;0.78;100.00
63654;BME280;49809;47.418;19.080;2023-03-03T01:43:55;100697.25;;;0.85;100.00
63654;BME280;49809;47.418;19.080;2023-03-03T01:47:32;100694.56;;;0.93;100.00
63654;BME280;49809;47.418;19.080;2023-03-03T01:51:14;100687.66;;;1.00;100.00
63654;BME280;49809;47.418;19.080;2023-03-03T01:58:51;100694.03;;;1.12;100.00
63654;BME280;49809;47.418;19.080;2023-03-03T02:02:39;100683.25;;;1.15;100.00
63654;BME280;49809;47.418;19.080;2023-03-03T02:05:44;100695.22;;;1.24;100.00
63654;BME280;49809;47.418;19.080;2023-03-03T02:09:20;100697.63;;;1.26;100.00
63654;BME280;49809;47.418;19.080;2023-03-03T02:13:04;100691.53;;;1.34;100.00
63654;BME280;49809;47.418;19.080;2023-03-03T02:21:21;100686.47;;;1.47;100.00
63654;BME280;49809;47.418;19.080;2023-03-03T02:24:53;100686.38;;;1.55;100.00
63654;BME280;49809;47.418;19.080;2023-03-03T02:28:40;100687.06;;;1.63;100.00
63654;BME280;49809;47.418;19.080;2023-03-03T02:36:38;100677.69;;;1.69;100.00
63654;BME280;49809;47.418;19.080;2023-03-03T02:40:01;100681.34;;;1.74;100.00
63654;BME280;49809;47.418;19.080;2023-03-03T02:47:22;100680.87;;;1.86;100.00
63654;BME280;49809;47.418;19.080;2023-03-03T02:59:26;100660.31;;;1.97;100.00
63654;BME280;49809;47.418;19.080;2023-03-03T03:03:12;100663.19;;;2.02;100.00
63654;BME280;49809;47.418;19.080;2023-03-03T03:06:37;100653.00;;;2.07;100.00
63654;BME280;49809;47.418;19.080;2023-03-03T03:10:00;100664.91;;;2.16;100.00
63654;BME280;49809;47.418;19.080;2023-03-03T03:13:33;100663.13;;;2.17;100.00
63654;BME280;49809;47.418;19.080;2023-03-03T03:17:11;100654.72;;;2.22;100.00
63654;BME280;49809;47.418;19.080;2023-03-03T03:20:56;100645.50;;;2.26;100.00
63654;BME280;49809;47.418;19.080;2023-03-03T03:24:19;100644.19;;;2.36;100.00
63654;BME280;49809;47.418;19.080;2023-03-03T03:27:45;100642.88;;;2.47;100.00
63654;BME280;49809;47.418;19.080;2023-03-03T03:31:49;100649.69;;;2.48;100.00
63654;BME280;49809;47.418;19.080;2023-03-03T03:35:18;100633.03;;;2.49;100.00
63654;BME280;49809;47.418;19.080;2023-03-03T03:43:17;100639.34;;;2.61;100.00
63654;BME280;49809;47.418;19.080;2023-03-03T03:46:40;100636.97;;;2.66;100.00
63654;BME280;49809;47.418;19.080;2023-03-03T03:50:25;100635.94;;;2.67;100.00
63654;BME280;49809;47.418;19.080;2023-03-03T03:53:56;100630.37;;;2.70;100.00
63654;BME280;49809;47.418;19.080;2023-03-03T03:57:00;100637.81;;;2.73;100.00
63654;BME280;49809;47.418;19.080;2023-03-03T04:00:44;100635.81;;;2.75;100.00
63654;BME280;49809;47.418;19.080;2023-03-03T04:03:51;100626.97;;;2.76;100.00
63654;BME280;49809;47.418;19.080;2023-03-03T04:07:27;100631.47;;;2.89;100.00
63654;BME280;49809;47.418;19.080;2023-03-03T04:11:03;100624.81;;;2.86;100.00
63654;BME280;49809;47.418;19.080;2023-03-03T04:14:46;100623.00;;;2.87;100.00
63654;BME280;49809;47.418;19.080;2023-03-03T04:18:13;100616.19;;;2.92;100.00
63654;BME280;49809;47.418;19.080;2023-03-03T04:21:41;100619.03;;;2.97;100.00
63654;BME280;49809;47.418;19.080;2023-03-03T04:25:17;100615.88;;;3.09;100.00
63654;BME280;49809;47.418;19.080;2023-03-03T04:29:07;100615.72;;;3.17;100.00
63654;BME280;49809;47.418;19.080;2023-03-03T04:32:13;100606.00;;;3.04;100.00
63654;BME280;49809;47.418;19.080;2023-03-03T04:35:37;100606.59;;;2.99;100.00
63654;BME280;49809;47.418;19.080;2023-03-03T04:39:20;100607.00;;;3.03;100.00
63654;BME280;49809;47.418;19.080;2023-03-03T04:42:44;100612.66;;;3.06;100.00
63654;BME280;49809;47.418;19.080;2023-03-03T04:46:26;100615.06;;;3.08;100.00
63654;BME280;49809;47.418;19.080;2023-03-03T04:50:10;100619.09;;;3.11;100.00
63654;BME280;49809;47.418;19.080;2023-03-03T04:53:53;100610.88;;;3.14;100.00
63654;BME280;49809;47.418;19.080;2023-03-03T04:57:00;100608.84;;;3.16;100.00
63654;BME280;49809;47.418;19.080;2023-03-03T05:00:55;100610.84;;;3.07;100.00
63654;BME280;49809;47.418;19.080;2023-03-03T05:04:42;100607.88;;;3.17;100.00
63654;BME280;49809;47.418;19.080;2023-03-03T05:07:47;100600.63;;;3.19;100.00
63654;BME280;49809;47.418;19.080;2023-03-03T05:11:33;100621.56;;;3.19;100.00
63654;BME280;49809;47.418;19.080;2023-03-03T05:14:40;100620.75;;;3.25;100.00
63654;BME280;49809;47.418;19.080;2023-03-03T05:18:05;100612.91;;;3.25;100.00
63654;BME280;49809;47.418;19.080;2023-03-03T05:21:08;100610.75;;;3.28;100.00
63654;BME280;49809;47.418;19.080;2023-03-03T05:24:34;100611.09;;;3.25;100.00
63654;BME280;49809;47.418;19.080;2023-03-03T05:27:58;100617.16;;;3.26;100.00
63654;BME280;49809;47.418;19.080;2023-03-03T05:31:33;100626.22;;;3.30;100.00
63654;BME280;49809;47.418;19.080;2023-03-03T05:34:36;100629.00;;;3.22;100.00
63654;BME280;49809;47.418;19.080;2023-03-03T05:38:00;100626.25;;;3.36;100.00
63654;BME280;49809;47.418;19.080;2023-03-03T05:41:24;100623.03;;;3.41;100.00
63654;BME280;49809;47.418;19.080;2023-03-03T05:44:34;100622.84;;;3.42;100.00
63654;BME280;49809;47.418;19.080;2023-03-03T05:47:41;100623.84;;;3.41;100.00
63654;BME280;49809;47.418;19.080;2023-03-03T05:51:04;100626.87;;;3.45;99.73
63654;BME280;49809;47.418;19.080;2023-03-03T05:54:08;100632.97;;;3.52;99.42
63654;BME280;49809;47.418;19.080;2023-03-03T05:57:31;100629.75;;;3.57;99.26
63654;BME280;49809;47.418;19.080;2023-03-03T06:00:54;100625.53;;;3.62;99.16
63654;BME280;49809;47.418;19.080;2023-03-03T06:04:03;100627.34;;;3.68;98.61
63654;BME280;49809;47.418;19.080;2023-03-03T06:07:14;100632.19;;;3.71;97.68
63654;BME280;49809;47.418;19.080;2023-03-03T06:10:38;100627.37;;;3.81;96.56
63654;BME280;49809;47.418;19.080;2023-03-03T06:14:04;100631.03;;;3.93;96.04
63654;BME280;49809;47.418;19.080;2023-03-03T06:17:32;100635.28;;;4.01;95.44
63654;BME280;49809;47.418;19.080;2023-03-03T06:20:41;100645.53;;;4.03;94.28
63654;BME280;49809;47.418;19.080;2023-03-03T06:24:10;100641.50;;;4.07;93.71
63654;BME280;49809;47.418;19.080;2023-03-03T06:27:35;100642.50;;;3.99;93.19
63654;BME280;49809;47.418;19.080;2023-03-03T06:30:40;100646.38;;;4.29;92.39
63654;BME280;49809;47.418;19.080;2023-03-03T06:34:08;100648.00;;;4.30;92.32
63654;BME280;49809;47.418;19.080;2023-03-03T06:37:36;100651.22;;;4.39;92.68
63654;BME280;49809;47.418;19.080;2023-03-03T06:40:58;100654.63;;;4.33;92.56
63654;BME280;49809;47.418;19.080;2023-03-03T06:44:43;100664.72;;;4.43;92.62
63654;BME280;49809;47.418;19.080;2023-03-03T06:47:55;100660.06;;;4.64;92.28
63654;BME280;49809;47.418;19.080;2023-03-03T06:51:38;100654.81;;;4.84;92.00
63654;BME280;49809;47.418;19.080;2023-03-03T06:55:11;100653.75;;;4.98;91.99
63654;BME280;49809;47.418;19.080;2023-03-03T06:58:35;100662.59;;;5.04;91.81
63654;BME280;49809;47.418;19.080;2023-03-03T07:01:45;100657.78;;;5.01;92.27
63654;BME280;49809;47.418;19.080;2023-03-03T07:04:57;100660.47;;;4.48;93.98
63654;BME280;49809;47.418;19.080;2023-03-03T07:08:15;100664.69;;;4.75;93.74
63654;BME280;49809;47.418;19.080;2023-03-03T07:12:09;100676.56;;;4.98;93.38
63654;BME280;49809;47.418;19.080;2023-03-03T07:15:47;100679.41;;;4.70;95.64
63654;BME280;49809;47.418;19.080;2023-03-03T07:19:19;100679.09;;;5.24;93.04
63654;BME280;49809;47.418;19.080;2023-03-03T07:22:43;100684.19;;;5.06;93.50
63654;BME280;49809;47.418;19.080;2023-03-03T07:26:31;100687.81;;;5.18;92.70
63654;BME280;49809;47.418;19.080;2023-03-03T07:30:26;100684.13;;;5.32;91.74
63654;BME280;49809;47.418;19.080;2023-03-03T07:37:44;100691.56;;;5.42;91.00
63654;BME280;49809;47.418;19.080;2023-03-03T07:41:22;100695.94;;;4.97;92.89
63654;BME280;49809;47.418;19.080;2023-03-03T07:44:54;100693.12;;;5.56;91.58
63654;BME280;49809;47.418;19.080;2023-03-03T07:53:14;100689.97;;;5.85;89.39
63654;BME280;49809;47.418;19.080;2023-03-03T07:57:28;100687.59;;;6.40;87.21
63654;BME280;49809;47.418;19.080;2023-03-03T08:04:46;100696.78;;;6.55;85.08
63654;BME280;49809;47.418;19.080;2023-03-03T08:11:53;100696.88;;;6.42;86.94
63654;BME280;49809;47.418;19.080;2023-03-03T08:15:17;100695.25;;;6.91;84.79
63654;BME280;49809;47.418;19.080;2023-03-03T08:18:53;100686.06;;;7.18;83.83
63654;BME280;49809;47.418;19.080;2023-03-03T08:22:33;100690.87;;;7.21;83.35
63654;BME280;49809;47.418;19.080;2023-03-03T08:29:59;100692.16;;;7.67;82.30
63654;BME280;49809;47.418;19.080;2023-03-03T08:33:38;100682.22;;;7.99;80.59
63654;BME280;49809;47.418;19.080;2023-03-03T08:37:10;100684.41;;;7.72;81.92
63654;BME280;49809;47.418;19.080;2023-03-03T08:40:38;100685.81;;;7.86;81.36
63654;BME280;49809;47.418;19.080;2023-03-03T08:44:21;100678.81;;;8.51;79.17
63654;BME280;49809;47.418;19.080;2023-03-03T08:47:51;100683.81;;;8.00;80.92
63654;BME280;49809;47.418;19.080;2023-03-03T08:51:24;100699.94;;;7.07;85.99
63654;BME280;49809;47.418;19.080;2023-03-03T08:54:44;100690.87;;;7.87;83.44
63654;BME280;49809;47.418;19.080;2023-03-03T08:58:02;100692.69;;;8.17;81.68
63654;BME280;49809;47.418;19.080;2023-03-03T09:01:35;100693.12;;;8.32;80.77
63654;BME280;49809;47.418;19.080;2023-03-03T09:05:03;100694.91;;;7.42;84.78
63654;BME280;49809;47.418;19.080;2023-03-03T09:08:46;100689.00;;;7.10;86.10
63654;BME280;49809;47.418;19.080;2023-03-03T09:11:56;100688.22;;;7.03;86.98
63654;BME280;49809;47.418;19.080;2023-03-03T09:15:35;100694.09;;;7.23;86.94
63654;BME280;49809;47.418;19.080;2023-03-03T09:19:23;100692.03;;;7.07;87.25
63654;BME280;49809;47.418;19.080;2023-03-03T09:22:41;100690.38;;;7.31;87.17
63654;BME280;49809;47.418;19.080;2023-03-03T09:29:52;100683.31;;;7.61;84.27
63654;BME280;49809;47.418;19.080;2023-03-03T09:33:39;100687.09;;;7.35;85.16
63654;BME280;49809;47.418;19.080;2023-03-03T09:37:21;100690.31;;;7.19;86.14
63654;BME280;49809;47.418;19.080;2023-03-03T09:40:59;100685.16;;;7.42;85.92
63654;BME280;49809;47.418;19.080;2023-03-03T09:48:03;100684.06;;;7.32;85.68
63654;BME280;49809;47.418;19.080;2023-03-03T10:19:56;100672.31;;;9.29;77.73
63654;BME280;49809;47.418;19.080;2023-03-03T10:24:00;100669.81;;;9.10;77.39
63654;BME280;49809;47.418;19.080;2023-03-03T10:28:04;100659.84;;;9.81;75.65
63654;BME280;49809;47.418;19.080;2023-03-03T10:44:28;100652.22;;;9.68;74.06
63654;BME280;49809;47.418;19.080;2023-03-03T10:59:48;100640.69;;;10.19;71.33
63654;BME280;49809;47.418;19.080;2023-03-03T11:03:46;100634.56;;;10.68;70.79
63654;BME280;49809;47.418;19.080;2023-03-03T11:07:32;100641.66;;;10.84;69.51
63654;BME280;49809;47.418;19.080;2023-03-03T11:11:18;100632.00;;;10.73;69.02
63654;BME280;49809;47.418;19.080;2023-03-03T11:26:37;100593.94;;;12.40;62.76
63654;BME280;49809;47.418;19.080;2023-03-03T11:39:34;100586.28;;;12.07;62.99
63654;BME280;49809;47.418;19.080;2023-03-03T11:45:57;100572.91;;;12.76;63.17
63654;BME280;49809;47.418;19.080;2023-03-03T11:49:21;100569.16;;;11.61;64.91
63654;BME280;49809;47.418;19.080;2023-03-03T12:06:57;100548.56;;;12.99;62.16
63654;BME280;49809;47.418;19.080;2023-03-03T12:28:16;100530.19;;;12.30;64.20
63654;BME280;49809;47.418;19.080;2023-03-03T12:35:11;100523.56;;;12.33;64.03
63654;BME280;49809;47.418;19.080;2023-03-03T12:38:55;100522.09;;;12.52;63.01
63654;BME280;49809;47.418;19.080;2023-03-03T12:42:13;100525.13;;;12.81;62.43
63654;BME280;49809;47.418;19.080;2023-03-03T12:57:42;100518.00;;;12.39;63.88
63654;BME280;49809;47.418;19.080;2023-03-03T13:04:28;100514.44;;;11.50;65.53
63654;BME280;49809;47.418;19.080;2023-03-03T13:11:34;100507.34;;;12.86;62.36
63654;BME280;49809;47.418;19.080;2023-03-03T13:15:15;100504.63;;;12.66;62.50
63654;BME280;49809;47.418;19.080;2023-03-03T13:22:17;100502.28;;;12.80;62.33
63654;BME280;49809;47.418;19.080;2023-03-03T13:25:52;100488.25;;;12.32;61.70
63654;BME280;49809;47.418;19.080;2023-03-03T13:29:12;100497.94;;;12.53;62.34
63654;BME280;49809;47.418;19.080;2023-03-03T13:32:22;100484.75;;;12.89;61.31
63654;BME280;49809;47.418;19.080;2023-03-03T13:38:52;100475.84;;;13.81;58.61
63654;BME280;49809;47.418;19.080;2023-03-03T13:42:21;100485.41;;;13.87;59.04
63654;BME280;49809;47.418;19.080;2023-03-03T13:45:50;100465.13;;;13.00;61.20
63654;BME280;49809;47.418;19.080;2023-03-03T13:52:09;100472.53;;;12.88;60.45
63654;BME280;49809;47.418;19.080;2023-03-03T13:55:51;100469.34;;;12.86;60.95
63654;BME280;49809;47.418;19.080;2023-03-03T14:06:01;100458.19;;;12.84;60.92
63654;BME280;49809;47.418;19.080;2023-03-03T14:13:10;100464.94;;;12.44;61.99
63654;BME280;49809;47.418;19.080;2023-03-03T14:20:19;100456.00;;;11.71;64.72
63654;BME280;49809;47.418;19.080;2023-03-03T14:23:42;100449.22;;;11.81;64.15
63654;BME280;49809;47.418;19.080;2023-03-03T14:31:26;100446.25;;;12.14;63.40
63654;BME280;49809;47.418;19.080;2023-03-03T14:34:41;100437.41;;;12.03;62.82
63654;BME280;49809;47.418;19.080;2023-03-03T14:37:46;100432.91;;;12.04;63.19
63654;BME280;49809;47.418;19.080;2023-03-03T14:47:29;100426.22;;;11.59;64.59
63654;BME280;49809;47.418;19.080;2023-03-03T14:50:39;100427.22;;;11.48;65.11
63654;BME280;49809;47.418;19.080;2023-03-03T14:54:27;100430.66;;;11.17;66.03
63654;BME280;49809;47.418;19.080;2023-03-03T14:57:56;100423.06;;;11.62;65.27
63654;BME280;49809;47.418;19.080;2023-03-03T15:01:31;100430.97;;;11.57;65.16
63654;BME280;49809;47.418;19.080;2023-03-03T15:04:38;100425.47;;;11.27;65.42
63654;BME280;49809;47.418;19.080;2023-03-03T15:08:09;100428.28;;;11.47;65.72
63654;BME280;49809;47.418;19.080;2023-03-03T15:11:35;100421.41;;;11.51;65.78
63654;BME280;49809;47.418;19.080;2023-03-03T15:14:43;100425.06;;;11.77;64.63
63654;BME280;49809;47.418;19.080;2023-03-03T15:17:58;100423.22;;;11.46;65.41
63654;BME280;49809;47.418;19.080;2023-03-03T15:25:57;100425.47;;;11.27;65.26
63654;BME280;49809;47.418;19.080;2023-03-03T15:32:29;100436.06;;;11.27;64.05
63654;BME280;49809;47.418;19.080;2023-03-03T15:36:02;100440.34;;;11.33;61.27
63654;BME280;49809;47.418;19.080;2023-03-03T15:42:28;100437.97;;;11.05;58.10
63654;BME280;49809;47.418;19.080;2023-03-03T15:50:23;100445.75;;;10.89;58.72
63654;BME280;49809;47.418;19.080;2023-03-03T15:59:14;100458.78;;;10.69;58.54
63654;BME280;49809;47.418;19.080;2023-03-03T16:06:37;100463.47;;;10.62;58.43
63654;BME280;49809;47.418;19.080;2023-03-03T16:10:09;100468.56;;;10.47;58.04
63654;BME280;49809;47.418;19.080;2023-03-03T16:24:54;100479.69;;;9.72;60.65
63654;BME280;49809;47.418;19.080;2023-03-03T16:52:17;100496.97;;;8.61;62.97
63654;BME280;49809;47.418;19.080;2023-03-03T16:55:36;100504.91;;;8.50;63.14
63654;BME280;49809;47.418;19.080;2023-03-03T17:06:58;100523.56;;;8.13;64.30
63654;BME280;49809;47.418;19.080;2023-03-03T17:10:50;100518.41;;;7.95;64.80
63654;BME280;49809;47.418;19.080;2023-03-03T17:22:38;100531.44;;;7.67;64.94
63654;BME280;49809;47.418;19.080;2023-03-03T17:47:12;100531.28;;;6.54;69.83
63654;BME280;49809;47.418;19.080;2023-03-03T17:51:18;100535.91;;;6.40;70.08
63654;BME280;49809;47.418;19.080;2023-03-03T17:58:34;100536.94;;;6.58;68.46
63654;BME280;49809;47.418;19.080;2023-03-03T18:17:34;100549.28;;;5.27;75.67
63654;BME280;49809;47.418;19.080;2023-03-03T18:21:27;100554.25;;;5.03;75.95
63654;BME280;49809;47.418;19.080;2023-03-03T18:24:58;100551.91;;;4.82;76.63
63654;BME280;49809;47.418;19.080;2023-03-03T18:28:46;100547.53;;;4.69;78.45
63654;BME280;49809;47.418;19.080;2023-03-03T18:32:22;100553.56;;;4.63;78.61
63654;BME280;49809;47.418;19.080;2023-03-03T18:38:48;100561.25;;;4.52;78.79
63654;BME280;49809;47.418;19.080;2023-03-03T18:52:31;100556.28;;;4.11;81.73
63654;BME280;49809;47.418;19.080;2023-03-03T18:55:46;100548.44;;;3.91;82.08
63654;BME280;49809;47.418;19.080;2023-03-03T19:02:36;100555.25;;;3.79;82.81
63654;BME280;49809;47.418;19.080;2023-03-03T19:06:08;100555.28;;;3.72;83.06
63654;BME280;49809;47.418;19.080;2023-03-03T19:09:46;100556.06;;;3.60;83.60
63654;BME280;49809;47.418;19.080;2023-03-03T19:16:36;100563.72;;;3.61;83.47
63654;BME280;49809;47.418;19.080;2023-03-03T19:20:17;100564.50;;;3.48;83.58
63654;BME280;49809;47.418;19.080;2023-03-03T19:23:58;100562.66;;;3.49;83.70
63654;BME280;49809;47.418;19.080;2023-03-03T19:47:04;100572.00;;;4.17;78.89
63654;BME280;49809;47.418;19.080;2023-03-03T19:50:21;100580.25;;;4.27;77.89
63654;BME280;49809;47.418;19.080;2023-03-03T20:08:29;100593.56;;;3.86;78.47
63654;BME280;49809;47.418;19.080;2023-03-03T20:19:51;100598.72;;;3.47;82.79
63654;BME280;49809;47.418;19.080;2023-03-03T20:23:20;100597.81;;;3.20;83.97
63654;BME280;49809;47.418;19.080;2023-03-03T20:26:34;100594.13;;;3.01;84.38
63654;BME280;49809;47.418;19.080;2023-03-03T20:30:29;100602.06;;;2.80;84.58
63654;BME280;49809;47.418;19.080;2023-03-03T20:34:04;100601.97;;;2.60;85.60
63654;BME280;49809;47.418;19.080;2023-03-03T20:55:43;100601.41;;;1.88;89.42
63654;BME280;49809;47.418;19.080;2023-03-03T20:58:57;100601.16;;;1.83;89.94
63654;BME280;49809;47.418;19.080;2023-03-03T21:02:27;100605.34;;;1.84;90.47
63654;BME280;49809;47.418;19.080;2023-03-03T21:05:33;100609.34;;;1.80;90.46
63654;BME280;49809;47.418;19.080;2023-03-03T21:08:55;100597.59;;;1.69;90.54
63654;BME280;49809;47.418;19.080;2023-03-03T21:12:03;100601.94;;;1.62;90.84
63654;BME280;49809;47.418;19.080;2023-03-03T21:15:32;100603.78;;;1.47;91.06
63654;BME280;49809;47.418;19.080;2023-03-03T21:18:37;100606.87;;;1.36;91.49
63654;BME280;49809;47.418;19.080;2023-03-03T21:21:44;100597.38;;;1.28;92.00
63654;BME280;49809;47.418;19.080;2023-03-03T21:24:54;100603.03;;;1.17;92.58
63654;BME280;49809;47.418;19.080;2023-03-03T21:28:57;100599.19;;;1.13;93.13
63654;BME280;49809;47.418;19.080;2023-03-03T21:31:49;100600.94;;;1.06;93.26
63654;BME280;49809;47.418;19.080;2023-03-03T21:35:05;100603.88;;;1.03;93.81
63654;BME280;49809;47.418;19.080;2023-03-03T21:38:33;100600.94;;;1.06;93.77
63654;BME280;49809;47.418;19.080;2023-03-03T21:45:10;100603.00;;;1.11;92.81
63654;BME280;49809;47.418;19.080;2023-03-03T21:48:38;100600.94;;;1.06;92.81
63654;BME280;49809;47.418;19.080;2023-03-03T21:51:42;100608.00;;;0.98;93.12
63654;BME280;49809;47.418;19.080;2023-03-03T21:54:56;100600.84;;;1.00;92.36
63654;BME280;49809;47.418;19.080;2023-03-03T21:58:40;100604.09;;;0.87;92.36
63654;BME280;49809;47.418;19.080;2023-03-03T22:01:47;100602.38;;;0.79;92.71
63654;BME280;49809;47.418;19.080;2023-03-03T22:05:32;100607.69;;;0.71;92.83
63654;BME280;49809;47.418;19.080;2023-03-03T22:08:43;100608.66;;;0.70;93.40
63654;BME280;49809;47.418;19.080;2023-03-03T22:12:19;100611.97;;;0.79;93.19
63654;BME280;49809;47.418;19.080;2023-03-03T22:16:02;100608.22;;;0.96;92.24
63654;BME280;49809;47.418;19.080;2023-03-03T22:19:33;100612.88;;;1.01;91.25
63654;BME280;49809;47.418;19.080;2023-03-03T22:22:57;100619.34;;;0.90;91.47
63654;BME280;49809;47.418;19.080;2023-03-03T22:26:03;100609.25;;;1.02;90.91
63654;BME280;49809;47.418;19.080;2023-03-03T22:29:10;100608.66;;;1.00;90.61
63654;BME280;49809;47.418;19.080;2023-03-03T22:32:14;100615.50;;;1.01;90.54
63654;BME280;49809;47.418;19.080;2023-03-03T22:35:57;100616.37;;;0.93;90.05
63654;BME280;49809;47.418;19.080;2023-03-03T22:39:01;100614.31;;;0.74;90.76
63654;BME280;49809;47.418;19.080;2023-03-03T22:46:41;100610.72;;;0.60;91.25
63654;BME280;49809;47.418;19.080;2023-03-03T22:50:24;100618.53;;;0.46;91.35
63654;BME280;49809;47.418;19.080;2023-03-03T22:53:47;100616.69;;;0.31;92.08
63654;BME280;49809;47.418;19.080;2023-03-03T22:56:51;100606.97;;;0.25;92.75
63654;BME280;49809;47.418;19.080;2023-03-03T23:00:36;100615.56;;;0.11;92.91
63654;BME280;49809;47.418;19.080;2023-03-03T23:08:14;100612.03;;;-0.11;94.12
63654;BME280;49809;47.418;19.080;2023-03-03T23:15:49;100619.53;;;-0.16;94.68
63654;BME280;49809;47.418;19.080;2023-03-03T23:19:25;100616.87;;;-0.08;94.54
63654;BME280;49809;47.418;19.080;2023-03-03T23:23:30;100614.22;;;-0.22;94.93
63654;BME280;49809;47.418;19.080;2023-03-03T23:27:17;100621.72;;;-0.27;95.06
63654;BME280;49809;47.418;19.080;2023-03-03T23:31:00;100618.12;;;-0.26;94.99
63654;BME280;49809;47.418;19.080;2023-03-03T23:34:23;100613.97;;;-0.35;95.38
63654;BME280;49809;47.418;19.080;2023-03-03T23:37:52;100609.16;;;-0.47;95.87
63654;BME280;49809;47.418;19.080;2023-03-03T23:41:28;100608.88;;;-0.52;96.12
63654;BME280;49809;47.418;19.080;2023-03-03T23:45:05;100605.66;;;-0.62;96.01
63654;BME280;49809;47.418;19.080;2023-03-03T23:48:56;100615.63;;;-0.65;96.56
63654;BME280;49809;47.418;19.080;2023-03-03T23:52:39;100608.38;;;-0.78;96.89
63654;BME280;49809;47.418;19.080;2023-03-03T23:56:04;100608.69;;;-0.81;97.74
63654;BME280;49809;47.418;19.080;2023-03-03T23:59:27;100604.66;;;-0.83;98.27
